Time;durP1;ratioP1;P1;durP2;ratioP2;P2;SDS_P1;SDS_P2;PMS_P1;PMS_P2;Temp;Humidity;BMP_temperature;BMP_pressure;BME280_temperature;BME280_humidity;BME280_pressure;Samples;Min_cycle;Max_cycle;Signal;HPM_P1;HPM_P2
2022/07/12 00:01:42;;;;;;;13.15;11.38;;;19.10;77.00;;;;;;5072414;28;20032;-71
2022/07/12 00:04:08;;;;;;;12.85;10.40;;;19.10;76.90;;;;;;5073822;28;20037;-72
2022/07/12 00:06:34;;;;;;;12.30;10.98;;;19.10;76.90;;;;;;5077675;28;20116;-72
2022/07/12 00:08:59;;;;;;;12.23;10.23;;;19.00;76.80;;;;;;5073929;28;20045;-72
2022/07/12 00:11:25;;;;;;;11.10;9.73;;;19.00;76.90;;;;;;5077296;28;20069;-72
2022/07/12 00:13:51;;;;;;;11.90;9.82;;;19.00;77.10;;;;;;5087855;28;20063;-72
2022/07/12 00:16:17;;;;;;;12.05;9.30;;;19.00;77.20;;;;;;5078580;28;20028;-71
2022/07/12 00:18:43;;;;;;;11.60;10.40;;;19.00;77.20;;;;;;5072803;28;20454;-72
2022/07/12 00:21:08;;;;;;;10.95;8.98;;;19.00;76.90;;;;;;5078637;28;20033;-72
2022/07/12 00:23:34;;;;;;;12.45;10.00;;;19.00;76.80;;;;;;5076736;28;20055;-72
2022/07/12 00:26:04;;;;;;;11.38;10.18;;;19.00;76.90;;;;;;5075655;28;20379;-72
2022/07/12 00:28:33;;;;;;;13.13;10.55;;;19.00;76.90;;;;;;5070062;28;20075;-72
2022/07/12 00:30:59;;;;;;;10.27;9.18;;;19.00;76.90;;;;;;5076819;28;20495;-72
2022/07/12 00:33:25;;;;;;;10.70;9.60;;;18.90;76.90;;;;;;5089393;28;20044;-72
2022/07/12 00:35:51;;;;;;;14.82;11.38;;;18.90;77.00;;;;;;5078528;28;20032;-72
2022/07/12 00:38:17;;;;;;;12.02;10.02;;;18.80;77.00;;;;;;5067920;28;20098;-72
2022/07/12 00:40:43;;;;;;;12.68;9.02;;;18.80;77.00;;;;;;5076551;28;20067;-72
2022/07/12 00:43:09;;;;;;;9.73;8.73;;;18.80;77.00;;;;;;5076712;28;20502;-72
2022/07/12 00:45:35;;;;;;;11.80;9.80;;;18.80;77.00;;;;;;5081151;28;20028;-72
2022/07/12 00:48:02;;;;;;;10.98;9.77;;;18.80;76.80;;;;;;5082492;28;20037;-72
2022/07/12 00:50:28;;;;;;;10.75;9.65;;;18.80;76.80;;;;;;5086359;28;20045;-72
2022/07/12 00:52:55;;;;;;;10.20;9.13;;;18.70;76.90;;;;;;5072141;28;20383;-72
2022/07/12 00:55:22;;;;;;;12.15;10.80;;;18.70;77.20;;;;;;5075530;28;20032;-72
2022/07/12 00:57:49;;;;;;;11.95;10.25;;;18.60;77.20;;;;;;5080102;28;20229;-72
2022/07/12 01:00:17;;;;;;;13.43;10.23;;;18.60;77.30;;;;;;5079853;28;20399;-73
2022/07/12 01:02:44;;;;;;;12.55;9.65;;;18.60;77.20;;;;;;5079866;28;20029;-72
2022/07/12 01:05:10;;;;;;;11.68;10.35;;;18.60;77.20;;;;;;5083942;28;20043;-72
2022/07/12 01:07:36;;;;;;;11.82;9.88;;;18.60;77.10;;;;;;5081424;28;20036;-72
2022/07/12 01:10:04;;;;;;;11.27;10.07;;;18.60;77.00;;;;;;5076278;28;20385;-73
2022/07/12 01:12:30;;;;;;;11.02;9.77;;;18.60;77.00;;;;;;5065416;28;20052;-72
2022/07/12 01:14:56;;;;;;;10.93;9.65;;;18.60;77.10;;;;;;5066438;28;20542;-72
2022/07/12 01:17:24;;;;;;;11.48;9.68;;;18.50;77.20;;;;;;5079619;28;20036;-72
2022/07/12 01:19:53;;;;;;;10.93;9.68;;;18.50;77.40;;;;;;5081186;28;20057;-73
2022/07/12 01:22:20;;;;;;;12.88;9.82;;;18.50;77.40;;;;;;5072494;28;20036;-72
2022/07/12 01:24:46;;;;;;;9.85;8.85;;;18.40;77.50;;;;;;5079487;28;20491;-72
2022/07/12 01:27:13;;;;;;;11.70;10.50;;;18.40;77.60;;;;;;5079870;28;20039;-72
2022/07/12 01:29:39;;;;;;;12.73;10.52;;;18.30;77.80;;;;;;5075603;28;20589;-72
2022/07/12 01:32:28;;;;;;;13.80;10.05;;;18.30;77.70;;;;;;5081010;28;20119;-72
2022/07/12 01:34:55;;;;;;;12.07;10.80;;;18.30;77.70;;;;;;5092888;28;20032;-72
2022/07/12 01:37:21;;;;;;;11.57;10.35;;;18.20;77.90;;;;;;5073311;28;20036;-72
2022/07/12 01:39:50;;;;;;;10.75;9.43;;;18.20;78.00;;;;;;5085048;28;20036;-72
2022/07/12 01:42:16;;;;;;;12.18;10.10;;;18.10;78.10;;;;;;5083356;28;20037;-72
2022/07/12 01:44:41;;;;;;;10.65;9.52;;;18.10;78.00;;;;;;5084470;28;20479;-72
2022/07/12 01:47:07;;;;;;;10.98;8.80;;;18.10;78.10;;;;;;5074358;28;20063;-72
2022/07/12 01:49:33;;;;;;;10.95;9.77;;;18.10;78.30;;;;;;5090761;28;20040;-72
2022/07/12 01:51:58;;;;;;;14.35;10.02;;;18.20;78.50;;;;;;5079349;28;20032;-73
2022/07/12 01:54:25;;;;;;;14.80;10.50;;;18.20;78.30;;;;;;5080653;28;20028;-72
2022/07/12 01:56:52;;;;;;;11.23;9.85;;;18.20;78.10;;;;;;5082490;28;20060;-72
2022/07/12 01:59:18;;;;;;;14.82;9.88;;;18.20;78.00;;;;;;5078443;28;20067;-72
2022/07/12 02:01:45;;;;;;;11.13;9.60;;;18.10;78.00;;;;;;5082786;28;20418;-72
2022/07/12 02:04:11;;;;;;;12.00;10.48;;;18.10;78.20;;;;;;5090348;28;20533;-72
2022/07/12 02:06:38;;;;;;;10.70;9.32;;;18.10;78.30;;;;;;5073804;28;20036;-72
2022/07/12 02:09:04;;;;;;;11.23;9.80;;;18.10;78.40;;;;;;5069917;28;20064;-72
2022/07/12 02:11:30;;;;;;;12.73;9.88;;;18.00;78.60;;;;;;5087312;28;20039;-72
2022/07/12 02:13:56;;;;;;;11.90;10.35;;;18.00;78.50;;;;;;5083152;28;20093;-71
2022/07/12 02:16:22;;;;;;;11.05;9.10;;;17.90;78.50;;;;;;5079900;28;20029;-71
2022/07/12 02:18:48;;;;;;;11.40;9.70;;;17.80;78.60;;;;;;5090067;28;20039;-71
2022/07/12 02:21:13;;;;;;;11.23;9.10;;;17.80;78.80;;;;;;5081258;28;20028;-71
2022/07/12 02:23:39;;;;;;;11.57;9.52;;;17.70;79.00;;;;;;5088577;28;20454;-72
2022/07/12 02:26:04;;;;;;;12.10;10.02;;;17.70;79.00;;;;;;5070895;28;20029;-71
2022/07/12 02:28:31;;;;;;;10.50;9.38;;;17.70;79.10;;;;;;5084376;28;20040;-71
2022/07/12 02:30:57;;;;;;;12.38;10.50;;;17.70;79.20;;;;;;5079500;28;20523;-71
2022/07/12 02:33:23;;;;;;;10.48;9.38;;;17.60;79.30;;;;;;5070695;28;20032;-71
2022/07/12 02:35:49;;;;;;;11.65;9.45;;;17.60;79.30;;;;;;5080693;28;20041;-72
2022/07/12 02:38:14;;;;;;;10.40;9.13;;;17.60;79.30;;;;;;5075869;28;20032;-71
2022/07/12 02:40:55;;;;;;;11.88;9.02;;;17.60;79.40;;;;;;5078703;28;20484;-71
2022/07/12 02:43:29;;;;;;;12.43;9.63;;;17.60;79.50;;;;;;5068574;28;20051;-71
2022/07/12 02:46:02;;;;;;;9.90;8.63;;;17.60;79.60;;;;;;5070601;28;20044;-73
2022/07/12 02:48:28;;;;;;;11.50;9.52;;;17.50;79.70;;;;;;5077569;28;20029;-71
2022/07/12 02:50:53;;;;;;;11.52;9.63;;;17.50;79.90;;;;;;5077891;28;20226;-72
2022/07/12 02:53:19;;;;;;;12.80;10.15;;;17.50;79.90;;;;;;5075909;28;20048;-72
2022/07/12 02:55:44;;;;;;;12.70;9.63;;;17.40;80.00;;;;;;5087045;28;20035;-72
2022/07/12 02:58:11;;;;;;;13.10;9.57;;;17.40;80.00;;;;;;5074040;28;20044;-72
2022/07/12 03:00:38;;;;;;;11.52;9.30;;;17.40;80.10;;;;;;5079609;28;20396;-72
2022/07/12 03:03:04;;;;;;;12.95;10.75;;;17.30;80.10;;;;;;5069905;28;20058;-72
2022/07/12 03:05:29;;;;;;;13.27;10.25;;;17.30;80.20;;;;;;5070261;28;20036;-72
2022/07/12 03:07:55;;;;;;;11.85;10.45;;;17.20;80.40;;;;;;5069970;28;20464;-72
2022/07/12 03:10:21;;;;;;;11.95;10.27;;;17.20;80.50;;;;;;5077995;28;20512;-72
2022/07/12 03:12:46;;;;;;;13.45;10.45;;;17.30;80.50;;;;;;5069173;28;20465;-72
2022/07/12 03:15:12;;;;;;;12.27;10.52;;;17.30;80.50;;;;;;5076441;28;20036;-72
2022/07/12 03:17:38;;;;;;;12.13;9.48;;;17.30;80.30;;;;;;5071052;28;20028;-72
2022/07/12 03:20:07;;;;;;;12.80;10.80;;;17.30;80.20;;;;;;5078312;28;20036;-72
2022/07/12 03:22:32;;;;;;;11.10;9.90;;;17.30;80.20;;;;;;5072860;28;20535;-72
2022/07/12 03:24:58;;;;;;;13.30;11.07;;;17.30;80.40;;;;;;5089897;28;20119;-72
2022/07/12 03:27:25;;;;;;;12.50;11.20;;;17.20;80.40;;;;;;5077741;28;20032;-72
2022/07/12 03:29:51;;;;;;;14.32;11.15;;;17.20;80.50;;;;;;5076429;28;20036;-72
2022/07/12 03:32:16;;;;;;;12.05;10.38;;;17.20;80.60;;;;;;5087504;28;20028;-71
2022/07/12 03:34:42;;;;;;;13.80;11.05;;;17.10;80.80;;;;;;5077620;28;20036;-72
2022/07/12 03:37:08;;;;;;;12.77;10.98;;;17.10;80.60;;;;;;5068500;28;20022;-72
2022/07/12 03:39:33;;;;;;;13.52;11.40;;;17.10;80.70;;;;;;5065682;28;20122;-72
2022/07/12 03:41:59;;;;;;;13.00;11.60;;;17.10;80.70;;;;;;5075941;28;20131;-71
2022/07/12 03:44:25;;;;;;;14.13;12.48;;;17.10;80.60;;;;;;5080472;28;20032;-71
2022/07/12 03:46:50;;;;;;;14.57;12.48;;;17.00;81.00;;;;;;5082114;28;20463;-72
2022/07/12 03:49:16;;;;;;;17.13;13.23;;;17.00;81.20;;;;;;5087245;28;20040;-71
2022/07/12 03:51:42;;;;;;;17.88;12.45;;;17.00;81.30;;;;;;5080949;28;20391;-72
2022/07/12 03:54:08;;;;;;;15.98;13.70;;;16.90;81.40;;;;;;5081498;28;20368;-72
2022/07/12 03:59:21;;;;;;;19.27;14.35;;;16.80;81.70;;;;;;5085685;28;20146;-72
2022/07/12 04:01:47;;;;;;;14.77;13.05;;;16.80;81.90;;;;;;5081664;28;20029;-72
2022/07/12 04:04:13;;;;;;;16.65;13.10;;;16.80;81.90;;;;;;5068630;28;20048;-72
2022/07/12 04:06:39;;;;;;;16.42;12.57;;;16.80;81.60;;;;;;5076348;28;20123;-72
2022/07/12 04:09:05;;;;;;;15.00;12.52;;;16.90;81.40;;;;;;5074457;28;20181;-72
2022/07/12 04:11:32;;;;;;;17.55;12.65;;;16.90;81.30;;;;;;5085611;28;20029;-72
2022/07/12 04:13:58;;;;;;;16.85;13.50;;;17.00;81.20;;;;;;5080976;28;20039;-72
2022/07/12 04:16:24;;;;;;;16.77;13.05;;;17.10;80.80;;;;;;5076356;28;20388;-72
2022/07/12 04:18:49;;;;;;;18.45;13.75;;;17.10;80.70;;;;;;5080829;28;20089;-73
2022/07/12 04:21:15;;;;;;;14.43;12.73;;;17.10;80.70;;;;;;5072427;28;20033;-72
2022/07/12 04:23:41;;;;;;;16.85;12.75;;;17.10;80.90;;;;;;5076755;28;20115;-72
2022/07/12 04:26:06;;;;;;;14.50;12.63;;;17.10;80.50;;;;;;5067813;28;20043;-73
2022/07/12 04:28:32;;;;;;;19.45;14.13;;;17.30;80.10;;;;;;5083002;28;20414;-72
2022/07/12 04:30:58;;;;;;;18.88;13.07;;;17.20;80.10;;;;;;5085505;28;20090;-73
2022/07/12 04:33:23;;;;;;;20.17;14.75;;;17.30;80.20;;;;;;5083128;28;20032;-72
2022/07/12 04:35:49;;;;;;;18.65;13.43;;;17.40;80.30;;;;;;5080279;28;20064;-76
2022/07/12 04:38:15;;;;;;;21.08;12.90;;;17.50;80.10;;;;;;5070024;28;20040;-76
2022/07/12 04:40:40;;;;;;;16.40;12.32;;;17.60;80.00;;;;;;5078451;28;20089;-76
2022/07/12 04:43:06;;;;;;;16.02;12.10;;;17.60;79.50;;;;;;5075490;28;20142;-76
2022/07/12 04:45:31;;;;;;;18.23;12.88;;;17.80;79.10;;;;;;5070179;28;20463;-76
2022/07/12 04:47:57;;;;;;;15.45;11.70;;;17.80;78.90;;;;;;5064353;28;20040;-76
2022/07/12 04:50:23;;;;;;;17.80;14.32;;;17.90;78.70;;;;;;5068878;28;20067;-76
2022/07/12 04:52:48;;;;;;;14.57;12.40;;;18.00;78.50;;;;;;5076358;28;20106;-76
2022/07/12 04:55:14;;;;;;;15.40;12.95;;;18.10;78.50;;;;;;5076054;28;20035;-76
2022/07/12 04:57:40;;;;;;;13.73;12.07;;;18.10;78.50;;;;;;5072029;28;20028;-76
2022/07/12 05:00:07;;;;;;;15.68;12.73;;;18.10;78.50;;;;;;5067473;28;20472;-75
2022/07/12 05:02:33;;;;;;;15.90;13.63;;;18.20;78.30;;;;;;5076222;28;20108;-74
2022/07/12 05:04:59;;;;;;;15.50;12.77;;;18.20;78.30;;;;;;5084809;28;20438;-75
2022/07/12 05:07:25;;;;;;;16.45;13.43;;;18.20;78.50;;;;;;5072093;28;20040;-75
2022/07/12 05:09:53;;;;;;;13.43;11.52;;;18.20;78.30;;;;;;5072499;28;20037;-75
2022/07/12 05:12:19;;;;;;;14.48;12.63;;;18.30;78.30;;;;;;5068934;28;20033;-75
2022/07/12 05:14:45;;;;;;;13.80;11.45;;;18.30;78.10;;;;;;5077872;28;20036;-74
2022/07/12 05:17:10;;;;;;;13.73;11.85;;;18.30;78.10;;;;;;5070714;28;20041;-75
2022/07/12 05:19:39;;;;;;;17.13;14.38;;;18.40;78.00;;;;;;5087982;28;20470;-75
2022/07/12 05:22:05;;;;;;;15.23;12.57;;;18.40;77.80;;;;;;5077889;28;20089;-75
2022/07/12 05:24:31;;;;;;;14.98;12.18;;;18.40;77.90;;;;;;5082059;28;20032;-75
2022/07/12 05:26:56;;;;;;;18.67;13.73;;;18.40;77.90;;;;;;5088174;28;20036;-75
2022/07/12 05:29:22;;;;;;;22.77;14.27;;;18.50;78.00;;;;;;5071388;28;20098;-74
2022/07/12 05:31:48;;;;;;;15.60;12.35;;;18.50;77.60;;;;;;5073889;28;20036;-74
2022/07/12 05:34:14;;;;;;;16.02;13.23;;;18.60;77.50;;;;;;5079832;28;20074;-74
2022/07/12 05:36:39;;;;;;;16.55;13.50;;;18.80;77.10;;;;;;5078193;28;20488;-74
2022/07/12 05:39:06;;;;;;;16.35;13.32;;;19.10;76.70;;;;;;5069811;28;20511;-76
2022/07/12 05:41:32;;;;;;;16.85;12.25;;;19.20;75.50;;;;;;5072559;28;20064;-75
2022/07/12 05:43:57;;;;;;;14.48;12.57;;;19.40;75.50;;;;;;5080859;28;20137;-75
2022/07/12 05:46:23;;;;;;;14.27;12.52;;;19.80;74.80;;;;;;5081039;28;20047;-75
2022/07/12 05:48:49;;;;;;;15.60;11.45;;;20.30;73.30;;;;;;5084228;28;20062;-75
2022/07/12 05:53:59;;;;;;;16.98;12.02;;;21.90;68.90;;;;;;5087941;28;20039;-75
2022/07/12 05:56:24;;;;;;;16.10;10.45;;;22.80;64.90;;;;;;5074398;28;20037;-76
2022/07/12 05:58:50;;;;;;;14.55;11.65;;;23.50;62.70;;;;;;5077585;28;20036;-75
2022/07/12 06:01:16;;;;;;;16.80;12.35;;;24.10;60.80;;;;;;5069110;28;20040;-75
2022/07/12 06:03:42;;;;;;;17.65;12.32;;;24.00;59.60;;;;;;5079524;28;20048;-75
2022/07/12 06:06:08;;;;;;;13.85;12.02;;;23.60;60.80;;;;;;5071659;28;20033;-75
2022/07/12 06:08:34;;;;;;;21.48;11.98;;;23.20;62.50;;;;;;5075146;28;20047;-75
2022/07/12 06:11:00;;;;;;;16.42;12.52;;;22.80;63.10;;;;;;5067203;28;20052;-76
2022/07/12 06:13:25;;;;;;;18.60;13.32;;;22.50;64.50;;;;;;5085934;28;20028;-75
2022/07/12 06:15:51;;;;;;;19.90;13.30;;;22.10;65.50;;;;;;5076625;28;20095;-75
2022/07/12 06:18:17;;;;;;;24.10;15.02;;;22.00;66.60;;;;;;5081030;28;20039;-75
2022/07/12 06:20:43;;;;;;;21.95;14.95;;;22.00;67.30;;;;;;5081792;28;20056;-75
2022/07/12 06:23:09;;;;;;;16.55;12.93;;;22.00;67.70;;;;;;5074069;28;20037;-75
2022/07/12 06:25:34;;;;;;;15.98;13.68;;;22.00;68.20;;;;;;5080185;28;20044;-75
2022/07/12 06:28:01;;;;;;;19.63;13.70;;;22.10;68.20;;;;;;5071164;28;20056;-74
2022/07/12 06:30:26;;;;;;;20.70;14.35;;;22.20;67.60;;;;;;5086331;28;20040;-75
2022/07/12 06:32:52;;;;;;;16.38;13.57;;;22.40;67.30;;;;;;5084578;28;20090;-75
2022/07/12 06:35:18;;;;;;;20.58;13.23;;;22.50;67.10;;;;;;5079284;28;20076;-75
2022/07/12 06:37:43;;;;;;;20.60;13.82;;;22.60;66.50;;;;;;5077663;28;20368;-75
2022/07/12 06:40:10;;;;;;;18.38;12.27;;;22.60;66.40;;;;;;5067075;28;20067;-75
2022/07/12 06:42:36;;;;;;;16.55;12.40;;;22.70;65.30;;;;;;5089621;28;20032;-75
2022/07/12 06:45:03;;;;;;;16.88;13.07;;;22.80;64.80;;;;;;5074542;28;20035;-75
2022/07/12 06:47:28;;;;;;;16.75;11.95;;;23.00;65.40;;;;;;5068135;28;20484;-75
2022/07/12 06:49:54;;;;;;;17.60;10.88;;;23.10;65.00;;;;;;5081895;28;20047;-76
2022/07/12 06:52:20;;;;;;;19.88;12.05;;;23.30;64.80;;;;;;5080124;28;20040;-76
2022/07/12 06:54:45;;;;;;;16.17;10.93;;;23.40;62.90;;;;;;5080759;28;20051;-76
2022/07/12 06:57:11;;;;;;;16.55;10.45;;;23.30;63.60;;;;;;5075002;28;20520;-75
2022/07/12 06:59:36;;;;;;;14.90;10.27;;;23.20;64.30;;;;;;5070155;28;20073;-75
2022/07/12 07:02:04;;;;;;;19.02;10.07;;;23.30;63.50;;;;;;5083271;28;20040;-76
2022/07/12 07:04:29;;;;;;;14.57;9.82;;;23.40;63.20;;;;;;5080643;28;20107;-76
2022/07/12 07:06:55;;;;;;;17.88;11.13;;;23.40;62.90;;;;;;5068410;28;20493;-76
2022/07/12 07:09:21;;;;;;;16.83;11.77;;;23.60;62.60;;;;;;5078561;28;20470;-76
2022/07/12 07:11:47;;;;;;;20.58;11.30;;;23.70;63.00;;;;;;5081417;28;20044;-76
2022/07/12 07:14:12;;;;;;;19.88;11.88;;;24.00;62.90;;;;;;5080399;28;20060;-76
2022/07/12 07:16:38;;;;;;;15.50;10.95;;;24.00;62.50;;;;;;5083386;28;20415;-77
2022/07/12 07:19:05;;;;;;;16.83;10.80;;;24.00;61.50;;;;;;5072624;28;20036;-77
2022/07/12 07:21:31;;;;;;;12.43;10.65;;;24.20;61.90;;;;;;5080219;28;20024;-77
2022/07/12 07:23:57;;;;;;;13.25;10.57;;;24.30;61.10;;;;;;5072846;28;20405;-77
2022/07/12 07:26:22;;;;;;;14.98;10.95;;;24.50;60.60;;;;;;5073384;28;20815;-76
2022/07/12 07:31:36;;;;;;;;;;;24.60;59.30;;;;;;5074129;28;20108;-76
2022/07/12 07:34:03;;;;;;;12.45;10.18;;;24.50;59.00;;;;;;5085335;28;19916;-76
2022/07/12 07:36:29;;;;;;;11.95;10.00;;;24.60;58.60;;;;;;5078479;28;20166;-76
2022/07/12 07:38:55;;;;;;;14.60;10.25;;;24.60;58.90;;;;;;5085136;28;20143;-76
2022/07/12 07:41:20;;;;;;;11.13;8.65;;;24.60;59.50;;;;;;5069279;28;20165;-76
2022/07/12 07:43:46;;;;;;;11.68;8.30;;;24.80;58.90;;;;;;5071123;28;20040;-75
2022/07/12 07:46:12;;;;;;;11.85;8.75;;;25.00;58.20;;;;;;5076157;28;20040;-75
2022/07/12 07:48:38;;;;;;;11.00;8.23;;;25.00;57.80;;;;;;5080892;28;20043;-75
2022/07/12 07:51:03;;;;;;;10.88;8.20;;;24.80;58.40;;;;;;5060014;28;20165;-75
2022/07/12 07:53:29;;;;;;;10.70;7.50;;;24.70;58.10;;;;;;5077885;28;20031;-75
2022/07/12 07:55:55;;;;;;;10.88;7.88;;;24.70;58.50;;;;;;5081494;28;20112;-75
2022/07/12 07:58:21;;;;;;;11.98;8.68;;;24.90;57.50;;;;;;5085918;28;20040;-75
2022/07/12 08:00:49;;;;;;;11.68;8.13;;;25.10;57.80;;;;;;5076257;28;20468;-75
2022/07/12 08:03:15;;;;;;;11.25;7.35;;;25.30;56.90;;;;;;5071212;28;20039;-76
2022/07/12 08:05:40;;;;;;;9.82;7.45;;;25.60;56.50;;;;;;5077509;28;20387;-75
2022/07/12 08:08:06;;;;;;;15.50;7.85;;;25.80;55.10;;;;;;5074999;28;20046;-75
2022/07/12 08:10:33;;;;;;;9.70;6.70;;;26.00;55.10;;;;;;5088338;28;20040;-75
2022/07/12 08:12:59;;;;;;;10.00;6.10;;;26.20;53.00;;;;;;5079002;28;20060;-76
2022/07/12 08:15:25;;;;;;;11.90;6.90;;;26.30;53.00;;;;;;5080122;28;20074;-75
2022/07/12 08:17:51;;;;;;;9.88;6.22;;;26.30;52.00;;;;;;5069286;28;20036;-75
2022/07/12 08:20:17;;;;;;;9.90;6.72;;;26.30;51.60;;;;;;5087631;28;20032;-75
2022/07/12 08:22:45;;;;;;;9.32;6.75;;;26.00;52.60;;;;;;5089789;28;20435;-75
2022/07/12 08:25:11;;;;;;;9.85;6.63;;;26.10;51.80;;;;;;5071613;28;20040;-76
2022/07/12 08:27:36;;;;;;;9.50;6.03;;;26.40;52.00;;;;;;5072355;28;20071;-75
2022/07/12 08:30:02;;;;;;;9.65;6.15;;;26.60;52.90;;;;;;5088283;28;20048;-76
2022/07/12 08:32:28;;;;;;;12.35;6.15;;;27.00;52.20;;;;;;5077117;28;20044;-75
2022/07/12 08:34:54;;;;;;;13.80;6.30;;;27.00;50.80;;;;;;5075113;28;20028;-74
2022/07/12 08:37:20;;;;;;;8.90;5.82;;;26.90;50.70;;;;;;5071502;28;20044;-75
2022/07/12 08:39:45;;;;;;;11.02;5.90;;;26.80;51.10;;;;;;5071271;28;20032;-76
2022/07/12 08:42:16;;;;;;;10.63;5.45;;;26.90;51.30;;;;;;5079418;28;20186;-76
2022/07/12 08:44:42;;;;;;;8.63;5.28;;;27.00;50.70;;;;;;5089958;28;20032;-76
2022/07/12 08:47:09;;;;;;;8.82;5.03;;;27.10;49.80;;;;;;5069281;28;20125;-76
2022/07/12 08:49:35;;;;;;;8.20;5.43;;;27.20;50.80;;;;;;5081640;28;20040;-76
2022/07/12 08:52:27;;;;;;;9.63;5.68;;;27.00;50.50;;;;;;5079738;28;20040;-76
2022/07/12 08:54:53;;;;;;;8.25;4.40;;;27.30;49.20;;;;;;5083491;28;20040;-75
2022/07/12 08:57:30;;;;;;;9.32;4.90;;;27.50;48.60;;;;;;5074162;28;20395;-75
2022/07/12 09:00:03;;;;;;;8.25;4.20;;;27.50;48.20;;;;;;5070511;28;20041;-76
2022/07/12 09:02:29;;;;;;;8.05;4.22;;;27.40;46.30;;;;;;5071630;28;20046;-75
2022/07/12 09:05:08;;;;;;;9.48;4.80;;;27.50;46.50;;;;;;5074105;28;20079;-76
2022/07/12 09:07:36;;;;;;;9.82;4.88;;;27.80;46.50;;;;;;5067930;28;20032;-75
2022/07/12 09:10:06;;;;;;;6.93;4.35;;;28.00;46.40;;;;;;5088342;28;20483;-76
2022/07/12 09:12:36;;;;;;;8.23;3.50;;;28.00;45.00;;;;;;5083365;28;20032;-75
2022/07/12 09:15:12;;;;;;;7.65;3.40;;;28.00;44.60;;;;;;5084854;28;20495;-77
2022/07/12 09:17:37;;;;;;;7.63;3.63;;;28.00;43.00;;;;;;5077916;28;20395;-75
2022/07/12 09:20:04;;;;;;;6.82;3.30;;;28.10;42.40;;;;;;5084067;28;20036;-76
2022/07/12 09:22:30;;;;;;;5.07;2.78;;;28.30;41.80;;;;;;5079920;28;20063;-76
2022/07/12 09:24:55;;;;;;;7.93;3.25;;;28.50;41.90;;;;;;5080682;28;20501;-76
2022/07/12 09:27:27;;;;;;;7.35;3.20;;;28.60;41.40;;;;;;5082494;28;20062;-75
2022/07/12 09:29:52;;;;;;;7.05;2.90;;;29.00;41.60;;;;;;5071001;28;20544;-75
2022/07/12 09:37:49;;;;;;;6.55;2.70;;;29.20;38.30;;;;;;5064984;28;20082;-75
2022/07/12 09:40:14;;;;;;;4.47;2.60;;;29.30;40.60;;;;;;5084960;28;20055;-75
2022/07/12 09:42:41;;;;;;;3.45;2.20;;;29.50;38.20;;;;;;5072967;28;20036;-75
2022/07/12 09:45:09;;;;;;;5.15;2.20;;;29.60;38.60;;;;;;5087474;28;20040;-75
2022/07/12 09:47:35;;;;;;;6.90;2.70;;;29.80;39.40;;;;;;5081949;28;20035;-75
2022/07/12 09:50:01;;;;;;;3.33;2.30;;;29.90;37.20;;;;;;5083623;28;20052;-75
2022/07/12 09:52:27;;;;;;;3.58;2.30;;;30.10;38.00;;;;;;5078287;28;20087;-76
2022/07/12 09:54:54;;;;;;;4.80;2.60;;;30.20;37.60;;;;;;5073365;28;20396;-76
2022/07/12 09:57:31;;;;;;;5.45;2.15;;;30.20;37.10;;;;;;5071540;28;20033;-75
2022/07/12 09:59:58;;;;;;;4.35;2.30;;;30.40;37.50;;;;;;5073490;28;20488;-74
2022/07/12 10:02:24;;;;;;;4.90;2.22;;;30.60;36.90;;;;;;5084013;28;20106;-74
2022/07/12 10:04:50;;;;;;;4.07;2.15;;;30.70;36.50;;;;;;5085447;28;20047;-77
2022/07/12 10:07:16;;;;;;;4.75;2.28;;;30.50;35.70;;;;;;5083379;28;20036;-76
2022/07/12 10:09:52;;;;;;;3.75;2.13;;;30.50;36.10;;;;;;5072810;28;20043;-75
2022/07/12 10:12:20;;;;;;;3.03;1.90;;;30.60;34.90;;;;;;5088467;28;20043;-75
2022/07/12 10:14:48;;;;;;;3.33;1.90;;;30.60;35.50;;;;;;5070947;28;20032;-75
2022/07/12 10:17:22;;;;;;;3.38;1.83;;;30.70;35.30;;;;;;5071462;28;20454;-75
2022/07/12 10:19:47;;;;;;;;;;;30.70;34.70;;;;;;5073000;28;20032;-75
2022/07/12 10:22:20;;;;;;;4.28;2.20;;;30.60;35.00;;;;;;5085614;28;19966;-75
2022/07/12 10:24:54;;;;;;;2.97;1.90;;;30.70;35.40;;;;;;5070240;28;20563;-75
2022/07/12 10:27:20;;;;;;;8.70;2.00;;;31.10;34.40;;;;;;5070356;28;20480;-76
2022/07/12 10:29:48;;;;;;;3.33;1.70;;;31.00;34.40;;;;;;5078953;28;20056;-75
2022/07/12 10:32:33;;;;;;;4.45;2.13;;;30.90;34.20;;;;;;5083529;28;20036;-75
2022/07/12 10:34:59;;;;;;;2.55;1.63;;;31.00;32.80;;;;;;5064044;28;20032;-75
2022/07/12 10:37:25;;;;;;;5.22;1.90;;;31.00;32.60;;;;;;5084448;28;20115;-75
2022/07/12 10:40:14;;;;;;;5.53;2.30;;;31.20;31.70;;;;;;5066320;28;20043;-75
2022/07/12 10:43:00;;;;;;;3.67;1.95;;;31.10;32.20;;;;;;5073796;28;20039;-75
2022/07/12 10:45:34;;;;;;;4.82;2.10;;;31.50;32.80;;;;;;5069926;28;20082;-75
2022/07/12 10:48:05;;;;;;;6.35;1.92;;;32.00;31.60;;;;;;5077543;28;20043;-75
2022/07/12 10:50:44;;;;;;;3.75;1.80;;;32.00;30.10;;;;;;5074371;28;20062;-74
2022/07/12 10:53:22;;;;;;;3.50;1.73;;;31.80;30.80;;;;;;5083703;28;20089;-75
2022/07/12 10:56:07;;;;;;;3.05;1.80;;;31.90;30.80;;;;;;5075114;28;20503;-75
2022/07/12 10:58:38;;;;;;;4.30;2.10;;;32.10;30.80;;;;;;5070171;28;20032;-75
2022/07/12 11:01:13;;;;;;;3.95;1.73;;;32.10;31.70;;;;;;5074941;28;20036;-76
2022/07/12 11:03:51;;;;;;;4.32;2.28;;;31.70;31.10;;;;;;5081132;28;20036;-75
2022/07/12 11:06:20;;;;;;;2.78;1.70;;;31.60;31.50;;;;;;5070547;28;20055;-75
2022/07/12 11:09:00;;;;;;;4.18;1.70;;;31.80;30.90;;;;;;5079946;28;20507;-75
2022/07/12 11:11:31;;;;;;;3.38;1.77;;;31.90;30.60;;;;;;5072998;28;20112;-75
2022/07/12 11:13:58;;;;;;;5.05;1.90;;;31.80;30.20;;;;;;5072894;28;20024;-75
2022/07/12 11:16:24;;;;;;;4.18;1.98;;;32.00;30.60;;;;;;5080422;28;20037;-76
2022/07/12 11:18:51;;;;;;;3.50;1.80;;;32.50;29.80;;;;;;5088711;28;20029;-76
2022/07/12 11:21:17;;;;;;;6.03;2.10;;;32.40;30.20;;;;;;5067194;28;20044;-76
2022/07/12 11:23:43;;;;;;;4.28;1.60;;;32.40;30.20;;;;;;5079559;28;20044;-76
2022/07/12 11:26:10;;;;;;;4.20;1.88;;;32.30;31.10;;;;;;5081638;28;20035;-76
2022/07/12 11:28:37;;;;;;;5.32;1.70;;;32.50;29.50;;;;;;5086689;28;20161;-76
2022/07/12 11:31:04;;;;;;;3.30;1.90;;;32.40;29.40;;;;;;5074947;28;20263;-75
2022/07/12 11:33:35;;;;;;;4.68;1.80;;;32.30;29.70;;;;;;5076158;28;20093;-74
2022/07/12 11:36:06;;;;;;;3.60;1.90;;;32.30;30.20;;;;;;5079269;28;20456;-74
2022/07/12 11:38:33;;;;;;;3.67;1.52;;;32.50;29.70;;;;;;5074450;28;20631;-74
2022/07/12 11:41:01;;;;;;;3.67;1.58;;;32.70;29.20;;;;;;5091480;28;20052;-74
2022/07/12 11:43:27;;;;;;;3.92;1.58;;;32.70;29.50;;;;;;5075005;28;20047;-76
2022/07/12 11:45:54;;;;;;;3.63;1.75;;;32.50;29.40;;;;;;5074410;28;20031;-76
2022/07/12 11:48:20;;;;;;;4.32;1.60;;;32.40;28.40;;;;;;5071094;28;20445;-75
2022/07/12 11:50:47;;;;;;;3.17;1.70;;;32.30;27.80;;;;;;5086569;28;20040;-75
2022/07/12 11:53:23;;;;;;;4.85;1.88;;;32.10;30.30;;;;;;5064231;28;20035;-76
2022/07/12 11:55:51;;;;;;;3.80;1.70;;;32.40;29.70;;;;;;5080484;28;20045;-75
2022/07/12 11:58:18;;;;;;;2.88;1.60;;;32.10;28.60;;;;;;5083339;28;20432;-76
2022/07/12 12:00:44;;;;;;;3.35;1.75;;;32.60;28.20;;;;;;5085161;28;20037;-76
2022/07/12 12:03:11;;;;;;;4.07;1.50;;;32.50;28.50;;;;;;5075734;28;20062;-76
2022/07/12 12:05:37;;;;;;;5.07;1.60;;;32.60;28.40;;;;;;5069360;28;20037;-76
2022/07/12 12:08:09;;;;;;;4.10;1.63;;;32.60;28.00;;;;;;5067934;28;20048;-76
2022/07/12 12:10:35;;;;;;;4.97;1.77;;;32.70;28.60;;;;;;5085553;28;20040;-75
2022/07/12 12:13:02;;;;;;;3.58;1.75;;;32.70;28.60;;;;;;5081566;28;20124;-77
2022/07/12 12:15:32;;;;;;;6.88;2.03;;;33.00;28.60;;;;;;5070894;28;20036;-76
2022/07/12 12:17:59;;;;;;;4.03;1.80;;;33.00;28.20;;;;;;5070028;28;20036;-76
2022/07/12 12:20:27;;;;;;;3.75;1.70;;;33.00;27.80;;;;;;5081859;28;20044;-75
2022/07/12 12:22:54;;;;;;;3.88;1.42;;;33.10;28.10;;;;;;5072159;28;20035;-76
2022/07/12 12:25:21;;;;;;;2.72;1.40;;;33.10;26.90;;;;;;5077415;28;20044;-75
2022/07/12 12:27:58;;;;;;;3.78;1.50;;;33.20;26.00;;;;;;5080413;28;20551;-76
2022/07/12 12:30:24;;;;;;;3.03;1.50;;;32.80;27.20;;;;;;5077548;28;20056;-75
2022/07/12 12:32:52;;;;;;;3.17;1.50;;;32.60;27.80;;;;;;5077893;28;20029;-75
2022/07/12 12:35:22;;;;;;;1.98;1.42;;;32.70;26.30;;;;;;5076569;28;20173;-75
2022/07/12 12:37:55;;;;;;;3.65;1.30;;;32.80;25.60;;;;;;5069791;28;20036;-76
2022/07/12 12:40:23;;;;;;;2.55;1.40;;;33.00;25.50;;;;;;5079263;28;20120;-75
2022/07/12 12:42:49;;;;;;;3.25;1.50;;;33.30;26.20;;;;;;5077699;28;20032;-76
2022/07/12 12:45:24;;;;;;;4.65;1.80;;;33.60;26.40;;;;;;5072325;28;20056;-76
2022/07/12 12:48:05;;;;;;;2.80;1.67;;;33.60;26.40;;;;;;5073191;28;20200;-76
2022/07/12 12:50:44;;;;;;;2.75;1.52;;;33.80;26.00;;;;;;5085047;28;20051;-75